createdAt,value
2023-02-01T00:01:00.023Z,26.65
2023-02-01T00:03:27.569Z,27.25
2023-02-01T00:05:58.566Z,32.97
2023-02-01T00:08:25.523Z,34.08
2023-02-01T00:11:10.198Z,31.05
2023-02-01T00:13:39.788Z,31.75
2023-02-01T00:16:18.031Z,29.25
2023-02-01T00:18:46.677Z,27.63
2023-02-01T00:21:15.971Z,27.05
2023-02-01T00:23:43.210Z,26.63
2023-02-01T00:26:18.847Z,26.63
2023-02-01T00:28:46.958Z,28.30
2023-02-01T00:34:00.462Z,30.25
2023-02-01T00:36:27.452Z,30.30
2023-02-01T00:38:54.317Z,33.20
2023-02-01T00:41:23.072Z,31.65
2023-02-01T00:43:51.251Z,32.40
2023-02-01T00:46:20.029Z,36.72
2023-02-01T00:48:47.105Z,36.33
2023-02-01T00:51:20.049Z,38.30
2023-02-01T00:53:46.994Z,35.72
2023-02-01T00:56:14.226Z,36.53
2023-02-01T00:58:44.450Z,37.55
2023-02-01T01:01:24.958Z,37.25
2023-02-01T01:03:55.719Z,37.72
2023-02-01T01:06:25.960Z,38.22
2023-02-01T01:08:54.930Z,36.38
2023-02-01T01:11:25.019Z,36.78
2023-02-01T01:13:53.701Z,35.95
2023-02-01T01:16:22.764Z,36.58
2023-02-01T01:18:50.462Z,38.03
2023-02-01T01:21:18.721Z,34.67
2023-02-01T01:23:47.507Z,35.40
2023-02-01T01:26:26.070Z,34.28
2023-02-01T01:28:53.625Z,34.88
2023-02-01T01:31:21.941Z,33.05
2023-02-01T01:33:51.901Z,33.50
2023-02-01T01:36:19.346Z,33.63
2023-02-01T01:38:46.329Z,32.05
2023-02-01T01:41:17.217Z,31.13
2023-02-01T01:44:00.533Z,30.95
2023-02-01T01:46:29.515Z,30.58
2023-02-01T01:49:14.730Z,31.70
2023-02-01T01:51:48.596Z,30.75
2023-02-01T01:54:21.259Z,30.35
2023-02-01T01:56:56.622Z,31.20
2023-02-01T01:59:25.769Z,31.10
2023-02-01T02:01:53.728Z,31.38
2023-02-01T02:04:21.325Z,31.98
2023-02-01T02:07:09.184Z,33.05
2023-02-01T02:09:36.358Z,31.63
2023-02-01T02:12:03.318Z,33.30
2023-02-01T02:14:31.080Z,32.75
2023-02-01T02:17:19.018Z,34.95
2023-02-01T02:20:11.852Z,33.92
2023-02-01T02:22:59.855Z,33.90
2023-02-01T02:25:29.514Z,33.97
2023-02-01T02:28:21.003Z,32.42
2023-02-01T02:31:06.128Z,32.63
2023-02-01T02:33:36.002Z,32.83
2023-02-01T02:36:12.419Z,31.48
2023-02-01T02:38:57.801Z,31.42
2023-02-01T02:41:58.367Z,30.98
2023-02-01T02:44:55.523Z,31.52
2023-02-01T02:47:37.461Z,30.63
2023-02-01T02:50:47.352Z,30.75
2023-02-01T02:53:43.470Z,29.42
2023-02-01T02:56:30.343Z,31.17
2023-02-01T02:59:18.023Z,31.92
2023-02-01T03:02:04.142Z,30.50
2023-02-01T03:04:31.109Z,29.35
2023-02-01T03:06:58.598Z,30.02
2023-02-01T03:09:35.023Z,29.52
2023-02-01T03:12:27.445Z,30.83
2023-02-01T03:15:01.653Z,28.60
2023-02-01T03:17:36.001Z,32.20
2023-02-01T03:20:05.138Z,31.55
2023-02-01T03:22:35.219Z,32.70
2023-02-01T03:25:24.114Z,31.45
2023-02-01T03:28:03.521Z,30.90
2023-02-01T03:30:38.937Z,30.93
2023-02-01T03:33:15.056Z,30.33
2023-02-01T03:35:42.346Z,30.05
2023-02-01T03:38:13.965Z,30.80
2023-02-01T03:40:45.405Z,30.63
2023-02-01T03:43:18.891Z,31.40
2023-02-01T03:45:50.927Z,30.33
2023-02-01T03:48:19.576Z,30.23
2023-02-01T03:50:51.938Z,28.80
2023-02-01T03:53:23.424Z,30.70
2023-02-01T03:55:52.213Z,29.38
2023-02-01T03:58:24.112Z,28.90
2023-02-01T04:00:54.921Z,26.50
2023-02-01T04:03:22.955Z,27.80
2023-02-01T04:05:50.946Z,27.10
2023-02-01T04:08:19.120Z,26.63
2023-02-01T04:10:46.065Z,27.25
2023-02-01T04:13:13.678Z,25.95
2023-02-01T04:15:40.930Z,26.67
2023-02-01T04:18:07.926Z,25.55
2023-02-01T04:20:34.747Z,27.05
2023-02-01T04:23:03.687Z,26.30
2023-02-01T04:25:31.110Z,26.17
2023-02-01T04:27:58.060Z,25.75
2023-02-01T04:30:25.368Z,26.35
2023-02-01T04:32:52.458Z,26.25
2023-02-01T04:35:19.373Z,31.65
2023-02-01T04:37:46.324Z,27.10
2023-02-01T04:40:13.621Z,25.88
2023-02-01T04:42:43.501Z,26.77
2023-02-01T04:45:10.995Z,25.73
2023-02-01T04:47:37.935Z,26.58
2023-02-01T04:50:07.049Z,29.40
2023-02-01T04:52:34.740Z,28.40
2023-02-01T04:55:03.498Z,26.17
2023-02-01T04:57:30.331Z,26.88
2023-02-01T04:59:57.265Z,26.10
2023-02-01T05:02:24.224Z,26.77
2023-02-01T05:04:51.778Z,25.33
2023-02-01T05:07:19.259Z,27.08
2023-02-01T05:09:46.181Z,23.35
2023-02-01T05:12:32.880Z,22.08
2023-02-01T05:14:59.813Z,22.13
2023-02-01T05:17:26.743Z,21.45
2023-02-01T05:19:53.807Z,22.13
2023-02-01T05:22:20.689Z,22.98
2023-02-01T05:24:47.673Z,22.55
2023-02-01T05:27:14.662Z,22.48
2023-02-01T05:29:41.728Z,23.70
2023-02-01T05:32:21.571Z,22.15
2023-02-01T05:34:49.240Z,22.52
2023-02-01T05:37:16.166Z,22.88
2023-02-01T05:39:43.085Z,23.73
2023-02-01T05:42:09.882Z,24.00
2023-02-01T05:44:36.715Z,23.85
2023-02-01T05:47:03.613Z,23.75
2023-02-01T05:49:30.603Z,24.38
2023-02-01T05:51:59.384Z,24.92
2023-02-01T05:54:27.268Z,24.45
2023-02-01T05:56:54.085Z,24.98
2023-02-01T05:59:21.015Z,23.35
2023-02-01T06:01:47.788Z,24.65
2023-02-01T06:04:14.649Z,25.65
2023-02-01T06:06:41.450Z,24.63
2023-02-01T06:09:08.467Z,26.08
2023-02-01T06:11:35.275Z,24.98
2023-02-01T06:14:02.221Z,24.02
2023-02-01T06:16:29.116Z,25.45
2023-02-01T06:18:56.109Z,25.90
2023-02-01T06:21:25.760Z,26.00
2023-02-01T06:23:53.265Z,24.65
2023-02-01T06:26:20.426Z,23.70
2023-02-01T06:28:47.589Z,23.88
2023-02-01T06:31:14.520Z,24.33
2023-02-01T06:33:41.961Z,22.45
2023-02-01T06:36:12.164Z,22.67
2023-02-01T06:38:39.898Z,23.85
2023-02-01T06:41:06.999Z,22.63
2023-02-01T06:43:34.438Z,22.77
2023-02-01T06:46:07.634Z,22.50
2023-02-01T06:48:35.653Z,23.10
2023-02-01T06:51:02.553Z,25.25
2023-02-01T06:53:30.056Z,21.92
2023-02-01T06:55:59.075Z,21.92
2023-02-01T06:58:29.634Z,22.77
2023-02-01T07:00:56.679Z,21.92
2023-02-01T07:03:23.481Z,23.27
2023-02-01T07:05:50.627Z,21.95
2023-02-01T07:08:17.453Z,23.52
2023-02-01T07:10:44.349Z,22.83
2023-02-01T07:13:11.221Z,22.92
2023-02-01T07:15:38.105Z,22.20
2023-02-01T07:18:04.938Z,21.85
2023-02-01T07:20:31.857Z,23.08
2023-02-01T07:22:59.004Z,22.13
2023-02-01T07:25:26.174Z,21.98
2023-02-01T07:27:53.086Z,23.20
2023-02-01T07:30:20.038Z,21.77
2023-02-01T07:32:46.941Z,23.35
2023-02-01T07:35:15.273Z,22.42
2023-02-01T07:37:42.139Z,20.70
2023-02-01T07:40:10.146Z,20.40
2023-02-01T07:42:36.954Z,20.92
2023-02-01T07:45:20.005Z,21.50
2023-02-01T07:47:48.079Z,21.77
2023-02-01T07:50:14.996Z,21.45
2023-02-01T07:52:41.966Z,21.38
2023-02-01T07:55:09.293Z,21.83
2023-02-01T07:57:36.167Z,21.67
2023-02-01T08:00:22.773Z,22.58
2023-02-01T08:02:50.414Z,20.25
2023-02-01T08:05:17.196Z,19.75
2023-02-01T08:07:44.066Z,21.20
2023-02-01T08:10:12.605Z,20.80
2023-02-01T08:12:39.652Z,21.77
2023-02-01T08:15:07.033Z,22.83
2023-02-01T08:17:34.078Z,22.60
2023-02-01T08:20:00.892Z,22.40
2023-02-01T08:22:33.052Z,22.27
2023-02-01T08:25:02.443Z,22.15
2023-02-01T08:27:29.368Z,21.07
2023-02-01T08:29:56.310Z,22.20
2023-02-01T08:32:23.205Z,21.60
2023-02-01T08:34:50.029Z,22.23
2023-02-01T08:37:16.854Z,20.92
2023-02-01T08:39:47.807Z,21.23
2023-02-01T08:42:33.410Z,19.25
2023-02-01T08:45:00.364Z,20.58
2023-02-01T08:47:27.356Z,19.73
2023-02-01T08:49:55.218Z,19.08
2023-02-01T08:52:22.177Z,18.42
2023-02-01T08:54:49.102Z,19.75
2023-02-01T08:57:16.314Z,18.67
2023-02-01T08:59:45.067Z,18.02
2023-02-01T09:02:17.168Z,19.38
2023-02-01T09:04:44.606Z,19.98
2023-02-01T09:07:12.016Z,20.48
2023-02-01T09:09:39.885Z,20.75
2023-02-01T09:12:07.331Z,19.70
2023-02-01T09:14:34.544Z,22.20
2023-02-01T09:17:01.339Z,21.17
2023-02-01T09:19:28.167Z,20.30
2023-02-01T09:21:55.178Z,20.77
2023-02-01T09:24:22.108Z,20.50
2023-02-01T09:26:49.137Z,21.38
2023-02-01T09:29:16.156Z,21.15
2023-02-01T09:31:49.863Z,22.90
2023-02-01T09:34:20.479Z,24.33
2023-02-01T09:36:47.357Z,25.67
2023-02-01T09:39:14.372Z,23.67
2023-02-01T09:41:41.220Z,24.90
2023-02-01T09:44:29.999Z,23.95
2023-02-01T09:47:02.551Z,23.27
2023-02-01T09:49:32.767Z,21.25
2023-02-01T09:54:50.717Z,21.35
2023-02-01T09:57:25.389Z,21.02
2023-02-01T10:00:03.917Z,20.15
2023-02-01T10:02:41.187Z,20.45
2023-02-01T10:05:19.276Z,19.88
2023-02-01T10:08:18.108Z,20.02
2023-02-01T10:10:51.562Z,21.17
2023-02-01T10:13:44.184Z,21.90
2023-02-01T10:16:16.569Z,22.17
2023-02-01T10:19:29.685Z,20.45
2023-02-01T10:22:03.719Z,18.15
2023-02-01T10:24:58.310Z,19.27
2023-02-01T10:27:34.081Z,19.58
2023-02-01T10:30:05.912Z,20.48
2023-02-01T10:32:35.849Z,16.88
2023-02-01T10:35:10.376Z,17.35
2023-02-01T10:37:37.365Z,17.90
2023-02-01T10:40:26.886Z,13.80
2023-02-01T10:43:00.131Z,15.23
2023-02-01T10:45:30.210Z,13.18
2023-02-01T10:47:59.761Z,14.15
2023-02-01T10:50:40.335Z,14.82
2023-02-01T10:53:23.277Z,14.70
2023-02-01T10:55:52.495Z,15.73
2023-02-01T10:58:32.818Z,15.70
2023-02-01T11:01:06.403Z,14.90
2023-02-01T11:03:35.346Z,13.93
2023-02-01T11:06:11.216Z,15.07
2023-02-01T11:08:53.455Z,16.05
2023-02-01T11:11:21.444Z,14.98
2023-02-01T11:14:27.109Z,15.73
2023-02-01T11:16:58.372Z,14.55
2023-02-01T11:19:25.573Z,14.68
2023-02-01T11:21:58.720Z,15.75
2023-02-01T11:24:29.924Z,16.20
2023-02-01T11:27:05.764Z,15.30
2023-02-01T11:29:43.544Z,17.90
2023-02-01T11:32:13.353Z,14.73
2023-02-01T11:34:45.502Z,16.55
2023-02-01T11:37:22.216Z,15.30
2023-02-01T11:40:00.652Z,15.40
2023-02-01T11:42:30.148Z,15.95
2023-02-01T11:45:30.588Z,15.43
2023-02-01T11:47:59.627Z,16.33
2023-02-01T11:50:38.827Z,14.27
2023-02-01T11:53:28.019Z,16.27
2023-02-01T11:56:28.961Z,16.58
2023-02-01T11:58:58.841Z,16.50
2023-02-01T12:01:48.752Z,15.70
2023-02-01T12:04:21.518Z,14.98
2023-02-01T12:07:12.880Z,15.48
2023-02-01T12:09:48.907Z,14.57
2023-02-01T12:12:27.710Z,15.35
2023-02-01T12:15:22.280Z,14.02
2023-02-01T12:18:06.744Z,15.15
2023-02-01T12:21:11.814Z,16.02
2023-02-01T12:24:10.590Z,16.42
2023-02-01T12:26:51.383Z,16.23
2023-02-01T12:29:33.966Z,17.52
2023-02-01T12:32:17.656Z,16.75
2023-02-01T12:35:10.397Z,17.95
2023-02-01T12:38:07.455Z,17.73
2023-02-01T12:40:44.527Z,19.63
2023-02-01T12:43:26.323Z,20.48
2023-02-01T12:46:08.288Z,18.02
2023-02-01T12:49:02.849Z,18.17
2023-02-01T12:51:42.817Z,17.48
2023-02-01T12:54:30.892Z,15.25
2023-02-01T12:57:04.203Z,16.23
2023-02-01T13:00:08.060Z,16.95
2023-02-01T13:02:43.810Z,18.30
2023-02-01T13:05:46.157Z,17.42
2023-02-01T13:08:19.283Z,18.92
2023-02-01T13:10:57.597Z,17.13
2023-02-01T13:13:34.591Z,16.00
2023-02-01T13:16:13.551Z,13.85
2023-02-01T13:18:44.921Z,15.90
2023-02-01T13:21:21.260Z,14.88
2023-02-01T13:23:50.166Z,14.40
2023-02-01T13:26:17.215Z,15.68
2023-02-01T13:28:51.806Z,15.50
2023-02-01T13:31:48.126Z,14.05
2023-02-01T13:34:46.758Z,14.85
2023-02-01T13:37:19.731Z,16.23
2023-02-01T13:40:11.043Z,14.55
2023-02-01T13:42:50.825Z,15.10
2023-02-01T13:45:52.120Z,15.98
2023-02-01T13:48:24.424Z,16.25
2023-02-01T13:50:55.862Z,17.63
2023-02-01T13:53:38.195Z,16.23
2023-02-01T13:56:19.290Z,16.13
2023-02-01T13:58:48.224Z,17.25
2023-02-01T14:01:24.209Z,17.05
2023-02-01T14:04:02.987Z,20.13
2023-02-01T14:06:31.186Z,18.25
2023-02-01T14:09:15.217Z,18.55
2023-02-01T14:11:58.891Z,16.90
2023-02-01T14:14:25.803Z,18.35
2023-02-01T14:16:55.252Z,17.73
2023-02-01T14:19:30.764Z,20.27
2023-02-01T14:22:02.531Z,18.42
2023-02-01T14:24:33.546Z,17.35
2023-02-01T14:27:03.868Z,18.08
2023-02-01T14:29:38.127Z,18.95
2023-02-01T14:32:23.641Z,19.30
2023-02-01T14:34:53.643Z,18.58
2023-02-01T14:37:22.016Z,19.00
2023-02-01T14:39:54.751Z,17.70
2023-02-01T14:42:42.839Z,18.38
2023-02-01T14:45:25.594Z,19.63
2023-02-01T14:48:07.803Z,17.45
2023-02-01T14:50:38.020Z,16.63
2023-02-01T14:56:05.388Z,16.35
2023-02-01T14:58:46.467Z,16.38
2023-02-01T15:01:31.654Z,16.95
2023-02-01T15:04:07.095Z,15.93
2023-02-01T15:06:44.134Z,17.23
2023-02-01T15:09:10.953Z,17.38
2023-02-01T15:11:58.921Z,18.42
2023-02-01T15:14:27.347Z,15.32
2023-02-01T15:16:56.945Z,21.23
2023-02-01T15:19:27.337Z,19.35
2023-02-01T15:21:56.732Z,17.60
2023-02-01T15:24:35.142Z,18.02
2023-02-01T15:27:07.443Z,16.60
2023-02-01T15:29:35.186Z,17.38
2023-02-01T15:32:02.223Z,19.20
2023-02-01T15:35:01.791Z,18.10
2023-02-01T15:37:29.765Z,19.67
2023-02-01T15:40:11.809Z,19.88
2023-02-01T15:42:53.191Z,19.83
2023-02-01T15:45:24.059Z,19.70
2023-02-01T15:47:53.588Z,21.92
2023-02-01T15:50:23.327Z,20.73
2023-02-01T15:52:56.889Z,21.92
2023-02-01T15:55:43.332Z,23.85
2023-02-01T15:58:19.652Z,28.88
2023-02-01T16:00:59.020Z,26.60
2023-02-01T16:03:44.075Z,32.25
2023-02-01T16:06:23.001Z,25.08
2023-02-01T16:08:53.329Z,26.35
2023-02-01T16:13:53.112Z,25.90
2023-02-01T16:16:20.002Z,26.67
2023-02-01T16:18:47.043Z,28.17
2023-02-01T16:21:13.921Z,27.77
2023-02-01T16:23:40.898Z,27.25
2023-02-01T16:26:08.128Z,23.92
2023-02-01T16:28:35.571Z,26.73
2023-02-01T16:31:02.912Z,25.85
2023-02-01T16:33:29.902Z,23.95
2023-02-01T16:36:01.104Z,23.70
2023-02-01T16:38:28.161Z,24.60
2023-02-01T16:40:55.190Z,24.90
2023-02-01T16:43:24.504Z,22.38
2023-02-01T16:45:54.496Z,25.35
2023-02-01T16:48:23.472Z,25.73
2023-02-01T16:50:56.532Z,25.70
2023-02-01T16:53:25.207Z,26.65
2023-02-01T16:55:53.412Z,27.80
2023-02-01T16:58:21.800Z,26.15
2023-02-01T17:00:49.253Z,27.20
2023-02-01T17:03:20.162Z,27.77
2023-02-01T17:05:49.926Z,25.77
2023-02-01T17:08:35.043Z,27.70
2023-02-01T17:11:03.147Z,28.08
2023-02-01T17:13:30.321Z,28.73
2023-02-01T17:16:04.356Z,29.33
2023-02-01T17:18:34.792Z,31.20
2023-02-01T17:21:03.852Z,28.95
2023-02-01T17:23:31.583Z,32.20
2023-02-01T17:25:59.159Z,32.03
2023-02-01T17:28:26.256Z,34.08
2023-02-01T17:30:53.140Z,34.65
2023-02-01T17:33:24.739Z,33.67
2023-02-01T17:35:53.885Z,31.50
2023-02-01T17:38:20.693Z,31.33
2023-02-01T17:40:47.670Z,32.90
2023-02-01T17:43:16.431Z,33.25
2023-02-01T17:45:51.925Z,34.50
2023-02-01T17:48:20.865Z,36.13
2023-02-01T17:50:51.100Z,35.90
2023-02-01T17:53:20.496Z,36.83
2023-02-01T17:55:47.382Z,35.10
2023-02-01T17:58:16.658Z,35.88
2023-02-01T18:00:45.513Z,36.20
2023-02-01T18:03:26.967Z,33.80
2023-02-01T18:05:56.324Z,33.20
2023-02-01T18:08:28.877Z,32.80
2023-02-01T18:11:01.024Z,31.10
2023-02-01T18:13:29.178Z,30.60
2023-02-01T18:15:56.208Z,29.08
2023-02-01T18:18:23.111Z,31.23
2023-02-01T18:20:50.285Z,31.95
2023-02-01T18:23:20.159Z,30.30
2023-02-01T18:25:47.488Z,30.13
2023-02-01T18:28:18.187Z,30.55
2023-02-01T18:30:48.498Z,33.20
2023-02-01T18:33:18.503Z,31.45
2023-02-01T18:35:45.518Z,30.48
2023-02-01T18:38:12.571Z,32.17
2023-02-01T18:40:48.042Z,31.33
2023-02-01T18:43:14.949Z,31.73
2023-02-01T18:45:45.123Z,35.63
2023-02-01T18:50:41.680Z,36.47
2023-02-01T18:53:14.369Z,38.37
2023-02-01T18:55:41.371Z,40.08
2023-02-01T18:58:08.772Z,39.67
2023-02-01T19:00:36.219Z,39.22
2023-02-01T19:03:03.433Z,39.58
2023-02-01T19:05:32.191Z,38.53
2023-02-01T19:07:59.018Z,37.90
2023-02-01T19:10:26.355Z,41.05
2023-02-01T19:12:55.910Z,44.08
2023-02-01T19:15:23.013Z,44.90
2023-02-01T19:17:53.544Z,44.97
2023-02-01T19:20:22.487Z,46.65
2023-02-01T19:22:49.611Z,47.88
2023-02-01T19:25:19.522Z,55.22
2023-02-01T19:27:46.893Z,52.08
2023-02-01T19:30:14.302Z,49.05
2023-02-01T19:32:41.676Z,51.38
2023-02-01T19:35:10.397Z,51.50
2023-02-01T19:37:37.340Z,50.40
2023-02-01T19:40:04.525Z,51.85
2023-02-01T19:42:31.391Z,51.03
2023-02-01T19:44:58.154Z,51.80
2023-02-01T19:47:25.036Z,51.45
2023-02-01T19:49:51.864Z,51.70
2023-02-01T19:52:18.866Z,48.85
2023-02-01T19:54:45.689Z,47.88
2023-02-01T19:57:12.490Z,48.63
2023-02-01T19:59:39.395Z,47.03
2023-02-01T20:02:05.425Z,54.05
2023-02-01T20:04:32.275Z,55.80
2023-02-01T20:06:59.244Z,55.47
2023-02-01T20:09:30.332Z,59.03
2023-02-01T20:11:57.614Z,56.22
2023-02-01T20:14:26.615Z,60.20
2023-02-01T20:16:53.521Z,56.05
2023-02-01T20:19:20.353Z,55.33
2023-02-01T20:21:47.397Z,55.63
2023-02-01T20:24:17.434Z,53.40
2023-02-01T20:26:46.199Z,57.63
2023-02-01T20:29:17.512Z,56.63
2023-02-01T20:31:46.050Z,58.10
2023-02-01T20:34:13.450Z,55.08
2023-02-01T20:36:40.707Z,56.00
2023-02-01T20:39:07.570Z,55.22
2023-02-01T20:41:34.407Z,56.40
2023-02-01T20:44:01.220Z,56.00
2023-02-01T20:46:28.195Z,54.47
2023-02-01T20:48:55.147Z,55.65
2023-02-01T20:51:22.181Z,53.13
2023-02-01T20:53:53.711Z,55.95
2023-02-01T20:56:21.185Z,54.30
2023-02-01T20:58:48.277Z,59.80
2023-02-01T21:01:16.291Z,57.75
2023-02-01T21:03:43.581Z,57.78
2023-02-01T21:06:12.935Z,56.00
2023-02-01T21:08:41.548Z,57.83
2023-02-01T21:11:13.319Z,56.42
2023-02-01T21:13:50.781Z,57.85
2023-02-01T21:16:21.066Z,58.75
2023-02-01T21:21:18.831Z,57.83
2023-02-01T21:23:46.067Z,54.40
2023-02-01T21:26:14.700Z,56.15
2023-02-01T21:28:41.538Z,55.83
2023-02-01T21:31:09.004Z,55.30
2023-02-01T21:33:36.335Z,58.45
2023-02-01T21:36:03.646Z,57.05
2023-02-01T21:38:30.472Z,62.72
2023-02-01T21:41:18.084Z,62.63
2023-02-01T21:43:45.462Z,58.17
2023-02-01T21:46:12.591Z,63.17
2023-02-01T21:49:04.710Z,67.63
2023-02-01T21:51:28.810Z,64.82
2023-02-01T21:53:56.328Z,62.70
2023-02-01T21:56:24.536Z,69.00
2023-02-01T21:58:51.360Z,64.43
2023-02-01T22:01:18.488Z,66.35
2023-02-01T22:03:45.331Z,68.18
2023-02-01T22:06:23.613Z,68.28
2023-02-01T22:08:50.465Z,68.18
2023-02-01T22:11:17.332Z,67.80
2023-02-01T22:13:44.212Z,67.50
2023-02-01T22:16:11.155Z,70.35
2023-02-01T22:18:37.993Z,70.88
2023-02-01T22:21:05.332Z,72.32
2023-02-01T22:23:32.374Z,72.43
2023-02-01T22:26:00.938Z,72.05
2023-02-01T22:28:32.095Z,71.75
2023-02-01T22:31:05.396Z,74.82
2023-02-01T22:33:33.824Z,74.00
2023-02-01T22:36:01.523Z,75.97
2023-02-01T22:38:31.663Z,76.13
2023-02-01T22:41:00.148Z,72.07
2023-02-01T22:43:28.055Z,74.25
2023-02-01T22:45:58.974Z,75.53
2023-02-01T22:48:25.821Z,76.90
2023-02-01T22:50:57.168Z,76.07
2023-02-01T22:53:24.165Z,77.47
2023-02-01T22:55:52.243Z,79.50
2023-02-01T22:58:20.129Z,75.60
2023-02-01T23:00:46.936Z,72.70
2023-02-01T23:03:13.860Z,77.70
2023-02-01T23:05:40.733Z,76.90
2023-02-01T23:08:07.689Z,76.00
2023-02-01T23:10:34.612Z,76.20
2023-02-01T23:13:01.625Z,75.13
2023-02-01T23:15:31.737Z,75.93
2023-02-01T23:17:58.837Z,77.65
2023-02-01T23:20:25.732Z,79.15
2023-02-01T23:22:53.201Z,76.28
2023-02-01T23:25:20.361Z,77.07
2023-02-01T23:27:51.241Z,77.10
2023-02-01T23:30:22.357Z,76.80
2023-02-01T23:32:53.274Z,74.82
2023-02-01T23:35:23.737Z,77.43
2023-02-01T23:37:54.689Z,78.63
2023-02-01T23:40:26.116Z,73.85
2023-02-01T23:43:11.971Z,73.80
2023-02-01T23:45:38.870Z,69.43
2023-02-01T23:48:08.437Z,70.60
2023-02-01T23:50:46.760Z,70.97
2023-02-01T23:53:13.907Z,67.35
2023-02-01T23:55:40.690Z,68.00
2023-02-01T23:58:07.571Z,69.63
